Flight Briefing for CPX333

Departure Arrival
Valley International Airport (KHRL)
Click to view FAA NOTAMS
Austin-Bergstrom International Airport (KAUS)
Click to view FAA NOTAMS
Departure Time Arrival Time
N/A N/A
Aircraft Distance
B767-300BDSF 273nm
Departure METAR Arrival METAR
KHRL 192234Z 34006KT 2 1/2SM BR OVC005 13/12 A2976 RMK AO2 T01330122 KAUS 192225Z 01011KT 1SM R17L/P6000FT -RA BR OVC008 06/04 A2987 RMK AO2 SFC VIS 2 P0002 T00610044
Suggested Route
CRP PCKIT


View recent IFR Routes data
Notes



Charts and Procedures

Charts for KHRL
No chart available
Charts for KAUS
No chart available

Ventusky Weather




{"cat":null,"equip":null,"transponder":null,"pbn":"PBN\/","maxpax":null,"oew":"0.0","mzfw":"0.0","mtow":"0.0","mlw":"0.0","maxfuel":"0.0"} DEVELOPMENTAL TEST USE ONLY